createdAt,value
2018-01-15T00:01:16.921Z,-4.00
2018-01-15T00:03:45.280Z,-4.00
2018-01-15T00:06:13.651Z,-4.00
2018-01-15T00:08:41.310Z,-4.10
2018-01-15T00:11:09.002Z,-4.00
2018-01-15T00:13:37.422Z,-4.10
2018-01-15T00:16:05.084Z,-4.10
2018-01-15T00:18:32.764Z,-4.10
2018-01-15T00:21:00.377Z,-4.00
2018-01-15T00:23:28.820Z,-4.10
2018-01-15T00:25:56.487Z,-4.00
2018-01-15T00:28:24.124Z,-4.00
2018-01-15T00:30:51.730Z,-4.00
2018-01-15T00:33:19.370Z,-4.00
2018-01-15T00:35:47.041Z,-4.00
2018-01-15T00:38:14.647Z,-4.10
2018-01-15T00:40:42.302Z,-4.00
2018-01-15T00:43:09.978Z,-4.00
2018-01-15T00:45:37.629Z,-4.00
2018-01-15T00:48:05.263Z,-4.00
2018-01-15T00:50:32.910Z,-4.00
2018-01-15T00:53:01.354Z,-4.00
2018-01-15T00:55:28.995Z,-4.00
2018-01-15T00:57:56.690Z,-4.00
2018-01-15T01:00:24.325Z,-4.00
2018-01-15T01:02:52.020Z,-4.00
2018-01-15T01:05:19.665Z,-4.00
2018-01-15T01:07:47.327Z,-4.00
2018-01-15T01:10:15.019Z,-4.00
2018-01-15T01:12:42.650Z,-4.00
2018-01-15T01:15:10.307Z,-4.00
2018-01-15T01:17:38.724Z,-4.00
2018-01-15T01:20:06.365Z,-4.10
2018-01-15T01:22:33.975Z,-4.00
2018-01-15T01:25:01.620Z,-4.00
2018-01-15T01:27:29.279Z,-4.00
2018-01-15T01:29:56.934Z,-4.00
2018-01-15T01:32:24.534Z,-4.00
2018-01-15T01:34:52.200Z,-3.90
2018-01-15T01:37:20.638Z,-3.90
2018-01-15T01:39:49.075Z,-3.80
2018-01-15T01:42:16.715Z,-3.80
2018-01-15T01:44:45.219Z,-3.80
2018-01-15T01:47:12.902Z,-3.80
2018-01-15T01:49:40.511Z,-3.80
2018-01-15T01:52:08.924Z,-3.70
2018-01-15T01:54:36.524Z,-3.80
2018-01-15T01:57:04.171Z,-3.70
2018-01-15T01:59:31.830Z,-3.70
2018-01-15T02:01:59.491Z,-3.70
2018-01-15T02:04:27.122Z,-3.70
2018-01-15T02:06:55.603Z,-3.60
2018-01-15T02:09:23.999Z,-3.60
2018-01-15T02:11:51.675Z,-3.60
2018-01-15T02:14:19.321Z,-3.60
2018-01-15T02:16:47.712Z,-3.60
2018-01-15T02:19:16.137Z,-3.60
2018-01-15T02:21:43.775Z,-3.60
2018-01-15T02:24:11.438Z,-3.60
2018-01-15T02:26:39.101Z,-3.50
2018-01-15T02:29:06.773Z,-3.50
2018-01-15T02:31:34.391Z,-3.50
2018-01-15T02:34:02.035Z,-3.50
2018-01-15T02:36:29.674Z,-3.50
2018-01-15T02:38:57.299Z,-3.50
2018-01-15T02:41:24.985Z,-3.50
2018-01-15T02:43:53.421Z,-3.50
2018-01-15T02:46:21.085Z,-3.50
2018-01-15T02:48:48.724Z,-3.40
2018-01-15T02:51:16.337Z,-3.50
2018-01-15T02:53:43.967Z,-3.40
2018-01-15T02:56:11.586Z,-3.40
2018-01-15T02:58:39.231Z,-3.40
2018-01-15T03:01:06.944Z,-3.40
2018-01-15T03:03:35.373Z,-3.40
2018-01-15T03:06:02.976Z,-3.40
2018-01-15T03:08:31.376Z,-3.40
2018-01-15T03:10:59.801Z,-3.40
2018-01-15T03:13:27.484Z,-3.40
2018-01-15T03:15:55.167Z,-3.40
2018-01-15T03:18:22.828Z,-3.40
2018-01-15T03:20:50.479Z,-3.40
2018-01-15T03:23:18.159Z,-3.40
2018-01-15T03:25:46.021Z,-3.40
2018-01-15T03:28:13.668Z,-3.40
2018-01-15T03:30:41.295Z,-3.40
2018-01-15T03:33:08.985Z,-3.40
2018-01-15T03:35:36.618Z,-3.40
2018-01-15T03:38:05.056Z,-3.40
2018-01-15T03:40:32.679Z,-3.40
2018-01-15T03:43:01.092Z,-3.30
2018-01-15T03:45:28.725Z,-3.40
2018-01-15T03:47:57.426Z,-3.30
2018-01-15T03:50:25.049Z,-3.40
2018-01-15T03:52:52.672Z,-3.30
2018-01-15T03:55:20.341Z,-3.30
2018-01-15T03:57:47.961Z,-3.30
2018-01-15T04:00:15.615Z,-3.40
2018-01-15T04:02:43.261Z,-3.30
2018-01-15T04:05:10.919Z,-3.30
2018-01-15T04:07:38.546Z,-3.40
2018-01-15T04:10:06.990Z,-3.30
2018-01-15T04:12:34.629Z,-3.30
2018-01-15T04:15:02.278Z,-3.30
2018-01-15T04:17:30.684Z,-3.30
2018-01-15T04:19:58.341Z,-3.30
2018-01-15T04:22:26.027Z,-3.30
2018-01-15T04:24:53.661Z,-3.30
2018-01-15T04:27:22.129Z,-3.30
2018-01-15T04:29:49.771Z,-3.30
2018-01-15T04:32:17.413Z,-3.30
2018-01-15T04:34:45.066Z,-3.20
2018-01-15T04:37:12.700Z,-3.20
2018-01-15T04:39:40.398Z,-3.20
2018-01-15T04:42:08.223Z,-3.20
2018-01-15T04:44:35.951Z,-3.20
2018-01-15T04:47:03.566Z,-3.20
2018-01-15T04:49:32.015Z,-3.20
2018-01-15T04:51:59.629Z,-3.20
2018-01-15T04:54:28.100Z,-3.20
2018-01-15T04:56:55.775Z,-3.20
2018-01-15T04:59:23.438Z,-3.20
2018-01-15T05:01:51.855Z,-3.20
2018-01-15T05:04:19.498Z,-3.20
2018-01-15T05:06:47.898Z,-3.20
2018-01-15T05:09:15.541Z,-3.20
2018-01-15T05:11:43.984Z,-3.10
2018-01-15T05:14:11.607Z,-3.20
2018-01-15T05:16:40.024Z,-3.10
2018-01-15T05:19:07.712Z,-3.10
2018-01-15T05:21:35.396Z,-3.10
2018-01-15T05:24:03.076Z,-3.10
2018-01-15T05:26:30.764Z,-3.10
2018-01-15T05:28:58.420Z,-3.10
2018-01-15T05:31:26.907Z,-3.10
2018-01-15T05:33:54.727Z,-3.10
2018-01-15T05:36:22.521Z,-3.00
2018-01-15T05:38:50.193Z,-3.10
2018-01-15T05:41:17.876Z,-3.10
2018-01-15T05:43:46.299Z,-3.10
2018-01-15T05:46:13.937Z,-3.10
2018-01-15T05:48:42.378Z,-3.10
2018-01-15T05:51:09.989Z,-3.10
2018-01-15T05:53:38.375Z,-3.10
2018-01-15T05:56:06.421Z,-3.10
2018-01-15T05:58:34.845Z,-3.00
2018-01-15T06:01:02.634Z,-3.00
2018-01-15T06:03:30.385Z,-3.00
2018-01-15T06:05:58.070Z,-3.00
2018-01-15T06:08:25.710Z,-3.00
2018-01-15T06:10:53.368Z,-3.00
2018-01-15T06:13:21.747Z,-3.00
2018-01-15T06:15:50.161Z,-3.00
2018-01-15T06:18:17.790Z,-3.00
2018-01-15T06:20:46.241Z,-3.00
2018-01-15T06:23:13.984Z,-3.00
2018-01-15T06:25:41.825Z,-2.90
2018-01-15T06:28:10.250Z,-3.00
2018-01-15T06:30:37.847Z,-3.00
2018-01-15T06:33:05.544Z,-2.90
2018-01-15T06:35:33.923Z,-2.90
2018-01-15T06:38:02.354Z,-2.90
2018-01-15T06:40:30.003Z,-2.90
2018-01-15T06:42:57.783Z,-2.90
2018-01-15T06:45:25.473Z,-2.90
2018-01-15T06:47:53.200Z,-2.90
2018-01-15T06:50:21.106Z,-2.90
2018-01-15T06:52:48.767Z,-2.90
2018-01-15T06:55:16.392Z,-2.90
2018-01-15T06:57:44.803Z,-2.90
2018-01-15T07:00:12.753Z,-2.90
2018-01-15T07:02:41.183Z,-3.00
2018-01-15T07:05:08.814Z,-3.00
2018-01-15T07:07:36.515Z,-3.10
2018-01-15T07:10:04.208Z,-3.10
2018-01-15T07:12:31.855Z,-3.20
2018-01-15T07:14:59.553Z,-3.20
2018-01-15T07:17:27.213Z,-3.30
2018-01-15T07:19:54.894Z,-3.30
2018-01-15T07:22:23.336Z,-3.40
2018-01-15T07:24:51.103Z,-3.50
2018-01-15T07:27:18.787Z,-3.50
2018-01-15T07:29:46.519Z,-3.50
2018-01-15T07:32:14.191Z,-3.50
2018-01-15T07:34:41.841Z,-3.60
2018-01-15T07:37:09.489Z,-3.60
2018-01-15T07:39:37.902Z,-3.70
2018-01-15T07:42:05.584Z,-3.70
2018-01-15T07:44:34.307Z,-3.70
2018-01-15T07:47:01.991Z,-3.70
2018-01-15T07:49:30.409Z,-3.70
2018-01-15T07:51:58.132Z,-3.70
2018-01-15T07:54:25.827Z,-3.70
2018-01-15T07:56:54.452Z,-3.60
2018-01-15T07:59:22.110Z,-3.70
2018-01-15T08:01:50.490Z,-3.60
2018-01-15T08:04:18.166Z,-3.60
2018-01-15T08:06:46.734Z,-3.60
2018-01-15T08:09:14.496Z,-3.60
2018-01-15T08:11:42.297Z,-3.60
2018-01-15T08:14:09.976Z,-3.50
2018-01-15T08:16:37.637Z,-3.50
2018-01-15T08:19:05.248Z,-3.40
2018-01-15T08:21:33.694Z,-3.30
2018-01-15T08:24:01.390Z,-3.40
2018-01-15T08:26:29.224Z,-3.30
2018-01-15T08:28:56.886Z,-3.20
2018-01-15T08:31:24.614Z,-3.20
2018-01-15T08:33:53.089Z,-3.00
2018-01-15T08:36:20.795Z,-3.10
2018-01-15T08:38:48.522Z,-3.00
2018-01-15T08:41:16.906Z,-2.80
2018-01-15T08:43:45.290Z,-2.80
2018-01-15T08:46:13.782Z,-2.70
2018-01-15T08:48:41.471Z,-2.70
2018-01-15T08:51:09.148Z,-2.60
2018-01-15T08:53:36.766Z,-2.60
2018-01-15T08:56:04.501Z,-2.50
2018-01-15T08:58:32.905Z,-2.40
2018-01-15T09:01:00.534Z,-2.30
2018-01-15T09:03:28.226Z,-2.30
2018-01-15T09:05:56.036Z,-2.20
2018-01-15T09:08:24.441Z,-2.10
2018-01-15T09:10:52.856Z,-1.90
2018-01-15T09:13:20.522Z,-2.00
2018-01-15T09:15:48.134Z,-1.90
2018-01-15T09:18:15.879Z,-1.70
2018-01-15T09:20:43.738Z,-1.70
2018-01-15T09:23:11.424Z,-1.60
2018-01-15T09:25:39.097Z,-1.50
2018-01-15T09:28:07.596Z,-1.40
2018-01-15T09:30:36.360Z,-1.30
2018-01-15T09:33:03.985Z,-1.30
2018-01-15T09:35:31.943Z,-1.20
2018-01-15T09:38:00.384Z,-1.10
2018-01-15T09:40:28.250Z,-1.10
2018-01-15T09:42:55.973Z,-1.00
2018-01-15T09:45:24.412Z,-0.80
2018-01-15T09:47:52.090Z,-0.80
2018-01-15T09:50:20.493Z,-0.50
2018-01-15T09:52:48.201Z,-0.60
2018-01-15T09:55:15.867Z,-0.40
2018-01-15T09:57:43.517Z,-0.30
2018-01-15T10:00:11.600Z,-0.20
2018-01-15T10:02:39.245Z,0.00
2018-01-15T10:05:07.795Z,0.20
2018-01-15T10:07:35.418Z,0.20
2018-01-15T10:10:03.534Z,0.30
2018-01-15T10:12:31.982Z,0.50
2018-01-15T10:14:59.590Z,0.50
2018-01-15T10:17:27.192Z,0.60
2018-01-15T10:19:55.805Z,0.80
2018-01-15T10:22:23.564Z,0.80
2018-01-15T10:24:51.257Z,0.90
2018-01-15T10:27:19.112Z,0.90
2018-01-15T10:29:46.741Z,0.90
2018-01-15T10:32:14.382Z,0.90
2018-01-15T10:34:42.020Z,1.00
2018-01-15T10:37:09.690Z,0.90
2018-01-15T10:39:37.359Z,0.90
2018-01-15T10:42:05.053Z,0.80
2018-01-15T10:44:32.811Z,0.80
2018-01-15T10:47:01.353Z,1.00
2018-01-15T10:49:29.158Z,1.00
2018-01-15T10:51:56.820Z,1.10
2018-01-15T10:54:24.503Z,1.20
2018-01-15T10:56:52.106Z,1.20
2018-01-15T10:59:19.827Z,1.40
2018-01-15T11:01:47.436Z,1.60
2018-01-15T11:04:15.864Z,1.70
2018-01-15T11:06:43.531Z,1.70
2018-01-15T11:09:11.154Z,1.70
2018-01-15T11:11:40.083Z,1.90
2018-01-15T11:14:07.952Z,1.90
2018-01-15T11:16:35.617Z,2.00
2018-01-15T11:19:03.211Z,2.00
2018-01-15T11:21:30.958Z,2.10
2018-01-15T11:23:59.590Z,2.40
2018-01-15T11:26:27.250Z,2.30
2018-01-15T11:28:54.914Z,2.50
2018-01-15T11:31:22.573Z,2.70
2018-01-15T11:33:50.227Z,2.90
2018-01-15T11:36:17.894Z,3.00
2018-01-15T11:38:45.527Z,2.90
2018-01-15T11:41:13.953Z,3.40
2018-01-15T11:43:41.633Z,3.40
2018-01-15T11:46:09.797Z,3.30
2018-01-15T11:48:37.462Z,3.20
2018-01-15T11:51:06.644Z,3.50
2018-01-15T11:53:35.578Z,3.80
2018-01-15T11:56:04.313Z,3.70
2018-01-15T11:58:34.202Z,3.80
2018-01-15T12:01:01.833Z,3.80
2018-01-15T12:03:32.321Z,4.00
2018-01-15T12:06:00.736Z,3.70
2018-01-15T12:08:30.362Z,3.70
2018-01-15T12:10:58.016Z,3.90
2018-01-15T12:13:25.684Z,3.80
2018-01-15T12:15:53.475Z,3.50
2018-01-15T12:18:21.577Z,3.20
2018-01-15T12:20:49.206Z,3.20
2018-01-15T12:23:17.016Z,3.10
2018-01-15T12:25:44.773Z,2.90
2018-01-15T12:28:13.688Z,2.90
2018-01-15T12:30:41.408Z,2.80
2018-01-15T12:33:09.074Z,2.80
2018-01-15T12:35:36.726Z,2.80
2018-01-15T12:38:04.335Z,2.70
2018-01-15T12:40:32.275Z,2.70
2018-01-15T12:42:59.874Z,2.70
2018-01-15T12:45:27.512Z,2.70
2018-01-15T12:47:56.144Z,2.60
2018-01-15T12:50:23.821Z,2.60
2018-01-15T12:52:51.468Z,2.50
2018-01-15T12:55:19.182Z,2.50
2018-01-15T12:57:46.820Z,2.50
2018-01-15T13:00:14.471Z,2.50
2018-01-15T13:02:42.135Z,2.40
2018-01-15T13:05:09.796Z,2.50
2018-01-15T13:07:49.338Z,2.60
2018-01-15T13:10:17.015Z,2.60
2018-01-15T13:12:44.696Z,2.60
2018-01-15T13:15:13.283Z,2.60
2018-01-15T13:17:40.902Z,2.50
2018-01-15T13:20:08.528Z,2.60
2018-01-15T13:22:37.012Z,2.60
2018-01-15T13:25:05.443Z,2.70
2018-01-15T13:27:33.431Z,2.70
2018-01-15T13:30:01.120Z,2.70
2018-01-15T13:32:28.742Z,2.60
2018-01-15T13:34:56.441Z,2.60
2018-01-15T13:37:24.062Z,2.60
2018-01-15T13:39:52.576Z,2.60
2018-01-15T13:42:20.285Z,2.60
2018-01-15T13:44:47.966Z,2.50
2018-01-15T13:47:16.551Z,2.50
2018-01-15T13:49:44.967Z,2.60
2018-01-15T13:52:12.602Z,2.60
2018-01-15T13:54:40.320Z,2.50
2018-01-15T13:57:07.974Z,2.50
2018-01-15T13:59:35.596Z,2.50
2018-01-15T14:02:03.989Z,2.50
2018-01-15T14:04:32.480Z,2.50
2018-01-15T14:07:00.195Z,2.40
2018-01-15T14:09:27.959Z,2.40
2018-01-15T14:11:55.565Z,2.40
2018-01-15T14:14:23.208Z,2.40
2018-01-15T14:16:51.631Z,2.40
2018-01-15T14:19:20.047Z,2.30
2018-01-15T14:21:47.706Z,2.30
2018-01-15T14:24:15.319Z,2.30
2018-01-15T14:26:42.972Z,2.30
2018-01-15T14:29:10.717Z,2.30
2018-01-15T14:31:38.345Z,2.30
2018-01-15T14:34:06.757Z,2.20
2018-01-15T14:36:34.451Z,2.20
2018-01-15T14:39:02.099Z,2.10
2018-01-15T14:41:29.703Z,2.10
2018-01-15T14:43:57.375Z,2.00
2018-01-15T14:46:25.132Z,2.00
2018-01-15T14:48:53.571Z,1.90
2018-01-15T14:51:21.328Z,1.90
2018-01-15T14:53:49.108Z,1.90
2018-01-15T14:56:16.733Z,1.80
2018-01-15T14:58:45.139Z,1.80
2018-01-15T15:01:12.783Z,1.80
2018-01-15T15:03:40.571Z,1.80
2018-01-15T15:06:08.240Z,1.60
2018-01-15T15:08:36.156Z,1.60
2018-01-15T15:11:03.872Z,1.60
2018-01-15T15:13:31.503Z,1.50
2018-01-15T15:15:59.935Z,1.40
2018-01-15T15:18:27.522Z,1.40
2018-01-15T15:20:55.181Z,1.40
2018-01-15T15:23:22.894Z,1.30
2018-01-15T15:25:51.433Z,1.20
2018-01-15T15:28:19.073Z,1.20
2018-01-15T15:30:46.698Z,1.20
2018-01-15T15:33:14.363Z,1.10
2018-01-15T15:35:41.981Z,1.10
2018-01-15T15:38:09.587Z,1.10
2018-01-15T15:40:37.375Z,1.10
2018-01-15T15:43:05.252Z,1.10
2018-01-15T15:45:32.951Z,1.10
2018-01-15T15:48:00.620Z,1.10
2018-01-15T15:50:28.282Z,1.10
2018-01-15T15:52:55.924Z,1.10
2018-01-15T15:55:24.344Z,1.10
2018-01-15T15:57:51.957Z,1.10
2018-01-15T16:00:19.614Z,1.10
2018-01-15T16:02:47.261Z,1.10
2018-01-15T16:05:14.899Z,1.10
2018-01-15T16:07:42.606Z,1.00
2018-01-15T16:10:10.219Z,1.00
2018-01-15T16:12:38.648Z,1.00
2018-01-15T16:15:06.305Z,1.00
2018-01-15T16:17:34.018Z,1.00
2018-01-15T16:20:01.638Z,1.00
2018-01-15T16:22:31.924Z,1.00
2018-01-15T16:25:00.611Z,1.10
2018-01-15T16:27:29.049Z,1.10
2018-01-15T16:29:56.922Z,1.00
2018-01-15T16:32:24.618Z,1.00
2018-01-15T16:34:52.337Z,1.00
2018-01-15T16:37:19.971Z,1.00
2018-01-15T16:39:48.362Z,1.00
2018-01-15T16:42:15.995Z,1.00
2018-01-15T16:44:43.657Z,1.00
2018-01-15T16:47:11.348Z,1.00
2018-01-15T16:49:39.799Z,0.90
2018-01-15T16:52:07.531Z,0.90
2018-01-15T16:54:35.167Z,0.90
2018-01-15T16:57:02.840Z,0.90
2018-01-15T16:59:31.283Z,0.90
2018-01-15T17:01:58.986Z,0.80
2018-01-15T17:04:27.403Z,0.80
2018-01-15T17:06:55.053Z,0.80
2018-01-15T17:09:23.564Z,0.80
2018-01-15T17:11:51.198Z,0.80
2018-01-15T17:14:19.678Z,0.80
2018-01-15T17:16:47.370Z,0.80
2018-01-15T17:19:15.204Z,0.80
2018-01-15T17:21:42.948Z,0.80
2018-01-15T17:24:10.575Z,0.80
2018-01-15T17:26:38.217Z,0.80
2018-01-15T17:29:06.649Z,0.70
2018-01-15T17:31:35.033Z,0.70
2018-01-15T17:34:02.709Z,0.70
2018-01-15T17:36:30.448Z,0.80
2018-01-15T17:38:58.224Z,0.70
2018-01-15T17:41:26.522Z,0.80
2018-01-15T17:43:54.240Z,0.70
2018-01-15T17:46:22.899Z,0.80
2018-01-15T17:48:50.612Z,0.70
2018-01-15T17:51:19.209Z,0.70
2018-01-15T17:53:46.879Z,0.70
2018-01-15T17:56:14.492Z,0.70
2018-01-15T17:58:42.115Z,0.80
2018-01-15T18:01:10.549Z,0.70
2018-01-15T18:03:38.289Z,0.70
2018-01-15T18:06:06.044Z,0.70
2018-01-15T18:08:33.692Z,0.70
2018-01-15T18:11:02.107Z,0.70
2018-01-15T18:13:29.778Z,0.70
2018-01-15T18:15:57.591Z,0.70
2018-01-15T18:18:25.449Z,0.70
2018-01-15T18:20:53.118Z,0.70
2018-01-15T18:23:20.788Z,0.80
2018-01-15T18:25:48.419Z,0.80
2018-01-15T18:28:16.005Z,0.70
2018-01-15T18:30:43.663Z,0.80
2018-01-15T18:33:11.298Z,0.70
2018-01-15T18:35:38.958Z,0.70
2018-01-15T18:38:06.796Z,0.70
2018-01-15T18:40:34.469Z,0.80
2018-01-15T18:43:03.148Z,0.80
2018-01-15T18:45:30.832Z,0.80
2018-01-15T18:47:58.503Z,0.80
2018-01-15T18:50:26.161Z,0.80
2018-01-15T18:52:53.816Z,0.80
2018-01-15T18:55:21.574Z,0.80
2018-01-15T18:57:49.285Z,0.80
2018-01-15T19:00:17.164Z,0.70
2018-01-15T19:02:44.777Z,0.70
2018-01-15T19:05:12.447Z,0.70
2018-01-15T19:07:40.848Z,0.70
2018-01-15T19:10:09.265Z,0.80
2018-01-15T19:12:37.298Z,0.80
2018-01-15T19:15:05.100Z,0.70
2018-01-15T19:17:33.596Z,0.70
2018-01-15T19:20:01.285Z,0.70
2018-01-15T19:22:29.063Z,0.70
2018-01-15T19:24:56.739Z,0.70
2018-01-15T19:27:24.476Z,0.70
2018-01-15T19:29:52.153Z,0.70
2018-01-15T19:32:19.859Z,0.70
2018-01-15T19:35:06.222Z,0.70
2018-01-15T19:37:42.431Z,0.60
2018-01-15T19:40:10.297Z,0.60
2018-01-15T19:42:38.016Z,0.70
2018-01-15T19:45:11.373Z,0.70
2018-01-15T19:47:45.487Z,0.70
2018-01-15T19:50:18.909Z,0.70
2018-01-15T19:52:52.424Z,0.70
2018-01-15T19:55:25.935Z,0.60
2018-01-15T19:57:59.352Z,0.60
2018-01-15T20:00:32.571Z,0.60
2018-01-15T20:03:05.962Z,0.50
2018-01-15T20:05:39.374Z,0.50
2018-01-15T20:08:12.824Z,0.40
2018-01-15T20:10:43.374Z,0.30
2018-01-15T20:13:11.124Z,0.40
2018-01-15T20:15:38.835Z,0.30
2018-01-15T20:18:06.491Z,0.30
2018-01-15T20:20:34.352Z,0.20
2018-01-15T20:23:02.626Z,0.30
2018-01-15T20:25:30.358Z,0.30
2018-01-15T20:27:58.366Z,0.40
2018-01-15T20:30:26.142Z,0.40
2018-01-15T20:32:53.813Z,0.40
2018-01-15T20:35:22.079Z,0.40
2018-01-15T20:37:49.768Z,0.30
2018-01-15T20:40:17.372Z,0.30
2018-01-15T20:42:45.115Z,0.30
2018-01-15T20:45:12.783Z,0.40
2018-01-15T20:47:40.443Z,0.40
2018-01-15T20:50:09.207Z,0.40
2018-01-15T20:52:38.022Z,0.50
2018-01-15T20:55:05.922Z,0.50
2018-01-15T20:57:33.722Z,0.50
2018-01-15T21:00:01.464Z,0.60
2018-01-15T21:02:29.956Z,0.50
2018-01-15T21:04:57.667Z,0.50
2018-01-15T21:07:25.395Z,0.50
2018-01-15T21:09:53.830Z,0.50
2018-01-15T21:12:21.511Z,0.50
2018-01-15T21:14:49.280Z,0.50
2018-01-15T21:17:16.984Z,0.60
2018-01-15T21:19:44.582Z,0.50
2018-01-15T21:22:13.028Z,0.70
2018-01-15T21:24:40.626Z,0.60
2018-01-15T21:27:09.063Z,0.70
2018-01-15T21:29:36.679Z,0.60
2018-01-15T21:32:04.300Z,0.70
2018-01-15T21:34:32.108Z,0.70
2018-01-15T21:37:00.526Z,0.70
2018-01-15T21:39:28.126Z,0.60
2018-01-15T21:41:55.801Z,0.70
2018-01-15T21:44:23.516Z,0.70
2018-01-15T21:46:52.256Z,0.60
2018-01-15T21:49:19.909Z,0.70
2018-01-15T21:51:47.592Z,0.70
2018-01-15T21:54:15.236Z,0.70
2018-01-15T21:56:43.112Z,0.80
2018-01-15T21:59:10.764Z,0.70
2018-01-15T22:01:38.504Z,0.80
2018-01-15T22:04:06.239Z,0.80
2018-01-15T22:06:33.920Z,0.70
2018-01-15T22:09:02.469Z,0.80
2018-01-15T22:11:30.146Z,0.80
2018-01-15T22:13:57.823Z,0.80
2018-01-15T22:16:25.506Z,0.80
2018-01-15T22:18:53.885Z,0.90
2018-01-15T22:21:21.632Z,0.80
2018-01-15T22:23:49.230Z,0.80
2018-01-15T22:26:17.682Z,0.70
2018-01-15T22:28:45.367Z,0.70
2018-01-15T22:31:13.010Z,0.70
2018-01-15T22:33:40.664Z,0.70
2018-01-15T22:36:08.317Z,0.70
2018-01-15T22:38:35.967Z,0.80
2018-01-15T22:41:03.635Z,0.80
2018-01-15T22:43:31.282Z,0.80
2018-01-15T22:45:58.996Z,0.80
2018-01-15T22:48:26.951Z,0.80
2018-01-15T22:50:54.595Z,0.80
2018-01-15T22:53:22.985Z,1.00
2018-01-15T22:55:51.424Z,0.90
2018-01-15T22:58:19.117Z,0.90
2018-01-15T23:00:47.528Z,0.90
2018-01-15T23:03:15.146Z,0.90
2018-01-15T23:05:42.763Z,0.90
2018-01-15T23:08:10.423Z,0.90
2018-01-15T23:10:38.061Z,0.80
2018-01-15T23:13:05.716Z,0.80
2018-01-15T23:15:33.324Z,0.80
2018-01-15T23:18:00.978Z,0.80
2018-01-15T23:20:29.655Z,0.80
2018-01-15T23:22:57.293Z,0.80
2018-01-15T23:25:24.893Z,0.80
2018-01-15T23:27:53.821Z,0.80
2018-01-15T23:30:21.471Z,0.80
2018-01-15T23:32:49.070Z,0.80
2018-01-15T23:35:16.693Z,0.80
2018-01-15T23:37:45.091Z,0.70
2018-01-15T23:40:12.699Z,0.70
2018-01-15T23:42:40.349Z,0.60
2018-01-15T23:45:07.967Z,0.70
2018-01-15T23:47:36.384Z,0.60
2018-01-15T23:50:03.979Z,0.60
2018-01-15T23:52:31.659Z,0.60
2018-01-15T23:54:59.261Z,0.60
2018-01-15T23:57:27.695Z,0.60
2018-01-15T23:59:55.292Z,0.50
